createdAt,value
2019-04-11T00:00:19.931Z,2
2019-04-11T00:00:52.308Z,1.9
2019-04-11T00:01:40.839Z,1.9
2019-04-11T00:01:54.904Z,1.9
2019-04-11T00:02:25.298Z,1.9
2019-04-11T00:02:55.779Z,1.9
2019-04-11T00:03:26.934Z,1.9
2019-04-11T00:04:44.688Z,1.9
2019-04-11T00:05:43.838Z,1.8
2019-04-11T00:06:43.465Z,1.8
2019-04-11T00:07:42.499Z,1.8
2019-04-11T00:08:40.326Z,1.8
2019-04-11T00:09:39.523Z,1.8
2019-04-11T00:10:39.849Z,1.8
2019-04-11T00:11:09.998Z,1.8
2019-04-11T00:11:39.474Z,1.8
2019-04-11T00:12:10.861Z,1.8
2019-04-11T00:13:37.003Z,1.7
2019-04-11T00:14:35.787Z,1.7
2019-04-11T00:15:34.822Z,1.7
2019-04-11T00:16:33.648Z,1.7
2019-04-11T00:17:32.616Z,1.7
2019-04-11T00:18:30.890Z,1.7
2019-04-11T00:19:29.991Z,1.7
2019-04-11T00:20:28.964Z,1.7
2019-04-11T00:21:29.067Z,1.7
2019-04-11T00:21:59.651Z,1.7
2019-04-11T00:23:26.408Z,1.7
2019-04-11T00:24:25.554Z,1.6
2019-04-11T00:25:23.772Z,1.6
2019-04-11T00:26:22.630Z,1.6
2019-04-11T00:27:21.734Z,1.6
2019-04-11T00:28:22.146Z,1.6
2019-04-11T00:29:20.998Z,1.6
2019-04-11T00:30:20.300Z,1.6
2019-04-11T00:31:18.792Z,1.6
2019-04-11T00:31:49.759Z,1.6
2019-04-11T00:32:19.607Z,1.6
2019-04-11T00:32:50.019Z,1.6
2019-04-11T00:33:20.418Z,1.6
2019-04-11T00:34:15.574Z,1.6
2019-04-11T00:35:13.966Z,1.6
2019-04-11T00:36:13.010Z,1.6
2019-04-11T00:37:13.153Z,1.6
2019-04-11T00:37:43.652Z,1.6
2019-04-11T00:38:14.307Z,1.6
2019-04-11T00:39:11.022Z,1.6
2019-04-11T00:40:09.508Z,1.6
2019-04-11T00:41:08.480Z,1.6
2019-04-11T00:42:07.226Z,1.5
2019-04-11T00:43:07.238Z,1.5
2019-04-11T00:44:06.248Z,1.5
2019-04-11T00:45:05.323Z,1.5
2019-04-11T00:46:04.519Z,1.5
2019-04-11T00:47:02.668Z,1.5
2019-04-11T00:47:33.658Z,1.5
2019-04-11T00:48:04.378Z,1.5
2019-04-11T00:48:33.937Z,1.5
2019-04-11T00:49:04.566Z,1.5
2019-04-11T00:49:59.366Z,1.5
2019-04-11T00:50:59.570Z,1.5
2019-04-11T00:51:58.169Z,1.5
2019-04-11T00:52:56.335Z,1.5
2019-04-11T00:53:55.696Z,1.5
2019-04-11T00:54:55.282Z,1.5
2019-04-11T00:55:54.110Z,1.4
2019-04-11T00:56:53.172Z,1.4
2019-04-11T00:57:23.556Z,1.4
2019-04-11T00:58:50.495Z,1.4
2019-04-11T00:59:49.442Z,1.4
2019-04-11T01:00:48.377Z,1.4
2019-04-11T01:01:47.594Z,1.4
2019-04-11T01:02:47.368Z,1.3
2019-04-11T01:03:45.933Z,1.3
2019-04-11T01:04:45.238Z,1.4
2019-04-11T01:05:43.036Z,1.4
2019-04-11T01:06:14.356Z,1.4
2019-04-11T01:06:44.813Z,1.3
2019-04-11T01:07:15.012Z,1.3
2019-04-11T01:07:44.485Z,1.3
2019-04-11T01:08:15.995Z,1.3
2019-04-11T01:09:40.452Z,1.3
2019-04-11T01:10:39.570Z,1.3
2019-04-11T01:11:40.285Z,1.3
2019-04-11T01:12:37.082Z,1.3
2019-04-11T01:13:55.189Z,1.3
2019-04-11T01:14:06.204Z,1.3
2019-04-11T01:14:38.945Z,1.3
2019-04-11T01:15:33.651Z,1.3
2019-04-11T01:16:04.954Z,1.3
2019-04-11T01:16:35.352Z,1.3
2019-04-11T01:17:08.065Z,1.3
2019-04-11T01:17:35.365Z,1.3
2019-04-11T01:18:06.028Z,1.3
2019-04-11T01:18:36.596Z,1.3
2019-04-11T01:19:07.194Z,1.3
2019-04-11T01:20:29.696Z,1.3
2019-04-11T01:21:28.453Z,1.3
2019-04-11T01:22:27.045Z,1.3
2019-04-11T01:23:25.444Z,1.3
2019-04-11T01:24:24.457Z,1.3
2019-04-11T01:25:24.848Z,1.4
2019-04-11T01:25:55.379Z,1.4
2019-04-11T01:26:28.215Z,1.3
2019-04-11T01:26:55.164Z,1.3
2019-04-11T01:27:26.236Z,1.3
2019-04-11T01:27:56.943Z,1.3
2019-04-11T01:28:27.329Z,1.3
2019-04-11T01:28:57.012Z,1.3
2019-04-11T01:29:27.830Z,1.3
2019-04-11T01:29:58.234Z,1.3
2019-04-11T01:31:18.231Z,1.3
2019-04-11T01:32:16.627Z,1.3
2019-04-11T01:33:16.251Z,1.3
2019-04-11T01:34:14.619Z,1.3
2019-04-11T01:35:13.821Z,1.3
2019-04-11T01:35:44.197Z,1.3
2019-04-11T01:36:15.601Z,1.3
2019-04-11T01:36:45.607Z,1.3
2019-04-11T01:37:16.086Z,1.3
2019-04-11T01:37:46.667Z,1.3
2019-04-11T01:38:16.999Z,1.3
2019-04-11T01:38:47.095Z,1.3
2019-04-11T01:39:17.300Z,1.3
2019-04-11T01:39:47.936Z,1.3
2019-04-11T01:41:07.727Z,1.2
2019-04-11T01:42:07.532Z,1.3
2019-04-11T01:43:06.536Z,1.3
2019-04-11T01:44:09.015Z,1.2
2019-04-11T01:45:03.698Z,1.2
2019-04-11T01:45:34.265Z,1.2
2019-04-11T01:46:06.160Z,1.2
2019-04-11T01:46:35.265Z,1.2
2019-04-11T01:47:06.619Z,1.2
2019-04-11T01:47:37.616Z,1.2
2019-04-11T01:48:07.557Z,1.2
2019-04-11T01:48:37.208Z,1.2
2019-04-11T01:49:08.577Z,1.2
2019-04-11T01:49:38.979Z,1.2
2019-04-11T01:50:57.630Z,1.2
2019-04-11T01:51:56.731Z,1.2
2019-04-11T01:52:55.721Z,1.1
2019-04-11T01:53:55.831Z,1.1
2019-04-11T01:54:54.670Z,1.1
2019-04-11T01:55:53.074Z,1.1
2019-04-11T01:56:23.713Z,1.1
2019-04-11T01:56:54.231Z,1.1
2019-04-11T01:57:25.391Z,1.1
2019-04-11T01:57:54.778Z,1.1
2019-04-11T01:58:25.129Z,1.1
2019-04-11T01:58:55.798Z,1.1
2019-04-11T01:59:27.297Z,1.1
2019-04-11T02:00:50.807Z,1.1
2019-04-11T02:01:47.745Z,1.1
2019-04-11T02:02:46.853Z,1.1
2019-04-11T02:03:46.074Z,1.1
2019-04-11T02:04:44.458Z,1.1
2019-04-11T02:05:43.768Z,1.1
2019-04-11T02:06:42.806Z,1
2019-04-11T02:07:12.731Z,1
2019-04-11T02:07:43.160Z,1
2019-04-11T02:08:13.750Z,1
2019-04-11T02:08:44.321Z,1
2019-04-11T02:09:14.316Z,1
2019-04-11T02:10:37.673Z,0.9
2019-04-11T02:11:37.776Z,0.9
2019-04-11T02:12:35.903Z,0.9
2019-04-11T02:13:34.697Z,0.9
2019-04-11T02:14:33.962Z,0.9
2019-04-11T02:15:32.932Z,0.9
2019-04-11T02:17:31.234Z,0.9
2019-04-11T02:18:01.861Z,0.9
2019-04-11T02:18:32.258Z,0.9
2019-04-11T02:19:02.176Z,0.9
2019-04-11T02:19:32.690Z,0.9
2019-04-11T02:20:03.312Z,0.9
2019-04-11T02:20:33.882Z,0.9
2019-04-11T02:21:27.933Z,0.9
2019-04-11T02:22:26.604Z,0.9
2019-04-11T02:23:24.722Z,0.9
2019-04-11T02:24:24.227Z,0.9
2019-04-11T02:25:23.194Z,0.9
2019-04-11T02:26:22.014Z,0.9
2019-04-11T02:27:21.560Z,0.9
2019-04-11T02:27:51.054Z,0.9
2019-04-11T02:28:20.998Z,0.9
2019-04-11T02:28:51.433Z,0.9
2019-04-11T02:29:21.902Z,0.9
2019-04-11T02:29:53.266Z,0.9
2019-04-11T02:30:23.402Z,0.8
2019-04-11T02:30:56.807Z,0.8
2019-04-11T02:31:24.044Z,0.8
2019-04-11T02:32:20.722Z,0.8
2019-04-11T02:33:18.784Z,0.8
2019-04-11T02:33:46.755Z,0.8
2019-04-11T02:34:16.706Z,0.8
2019-04-11T02:35:17.640Z,0.8
2019-04-11T02:36:14.128Z,0.8
2019-04-11T02:37:10.910Z,0.8
2019-04-11T02:38:14.639Z,0.8
2019-04-11T02:38:41.759Z,0.8
2019-04-11T02:39:20.849Z,0.8
2019-04-11T02:39:43.247Z,0.8
2019-04-11T02:40:15.341Z,0.8
2019-04-11T02:40:45.259Z,0.8
2019-04-11T02:41:14.618Z,0.7
2019-04-11T02:42:10.683Z,0.8
2019-04-11T02:43:09.901Z,0.7
2019-04-11T02:43:43.838Z,0.7
2019-04-11T02:44:50.718Z,0.7
2019-04-11T02:46:32.981Z,0.7
2019-04-11T02:47:31.731Z,0.7
2019-04-11T02:47:56.298Z,0.7
2019-04-11T02:48:21.308Z,0.7
2019-04-11T02:49:03.375Z,0.7
2019-04-11T02:49:30.940Z,0.7
2019-04-11T02:50:00.294Z,0.7
2019-04-11T02:51:00.688Z,0.7
2019-04-11T02:51:56.597Z,0.7
2019-04-11T02:52:54.540Z,0.7
2019-04-11T02:53:30.453Z,0.7
2019-04-11T02:54:54.764Z,0.7
2019-04-11T02:55:56.379Z,0.7
2019-04-11T02:56:55.062Z,0.7
2019-04-11T02:57:51.142Z,0.7
2019-04-11T02:58:52.103Z,0.6
2019-04-11T02:59:21.781Z,0.6
2019-04-11T02:59:50.822Z,0.6
2019-04-11T03:00:46.402Z,0.6
2019-04-11T03:01:50.542Z,0.6
2019-04-11T03:02:45.080Z,0.6
2019-04-11T03:03:17.903Z,0.6
2019-04-11T03:03:47.641Z,0.6
2019-04-11T03:04:20.000Z,0.6
2019-04-11T03:05:46.757Z,0.5
2019-04-11T03:06:45.652Z,0.6
2019-04-11T03:07:42.612Z,0.6
2019-04-11T03:08:43.607Z,0.6
2019-04-11T03:09:39.558Z,0.5
2019-04-11T03:10:38.186Z,0.5
2019-04-11T03:11:35.611Z,0.5
2019-04-11T03:12:40.336Z,0.5
2019-04-11T03:13:05.501Z,0.5
2019-04-11T03:13:38.542Z,0.5
2019-04-11T03:14:09.609Z,0.5
2019-04-11T03:15:37.157Z,0.5
2019-04-11T03:17:14.622Z,0.5
2019-04-11T03:17:51.404Z,0.5
2019-04-11T03:19:04.796Z,0.5
2019-04-11T03:20:40.670Z,0.5
2019-04-11T03:21:24.015Z,0.5
2019-04-11T03:21:47.777Z,0.5
2019-04-11T03:22:27.293Z,0.4
2019-04-11T03:23:08.508Z,0.4
2019-04-11T03:23:28.542Z,0.4
2019-04-11T03:24:00.679Z,0.4
2019-04-11T03:24:33.828Z,0.4
2019-04-11T03:25:00.701Z,0.4
2019-04-11T03:26:22.048Z,0.4
2019-04-11T03:27:25.967Z,0.4
2019-04-11T03:27:54.115Z,0.4
2019-04-11T03:28:33.021Z,0.4
2019-04-11T03:28:58.327Z,0.4
2019-04-11T03:29:20.926Z,0.4
2019-04-11T03:31:03.588Z,0.3
2019-04-11T03:36:31.500Z,0.3
2019-04-11T03:40:16.763Z,0.2
2019-04-11T03:42:20.095Z,0.2
2019-04-11T03:44:00.182Z,0.2
2019-04-11T03:45:25.219Z,0.2
2019-04-11T03:47:34.653Z,0.2
2019-04-11T03:49:20.532Z,0.2
2019-04-11T03:50:19.358Z,0.2
2019-04-11T03:50:40.284Z,0.2
2019-04-11T03:51:08.614Z,0.1
2019-04-11T03:51:56.053Z,0
2019-04-11T03:52:26.345Z,0
2019-04-11T03:53:03.442Z,0
2019-04-11T03:53:32.406Z,0
2019-04-11T03:54:01.002Z,0
2019-04-11T03:54:26.438Z,0
2019-04-11T03:55:04.595Z,0
2019-04-11T03:55:32.591Z,0
2019-04-11T03:56:53.208Z,0
2019-04-11T03:57:19.563Z,0
2019-04-11T03:57:58.160Z,0
2019-04-11T03:58:25.621Z,0
2019-04-11T03:58:50.856Z,0
2019-04-11T03:59:48.110Z,0
2019-04-11T04:00:49.598Z,0
2019-04-11T04:01:48.667Z,0
2019-04-11T04:02:17.298Z,0
2019-04-11T04:02:48.826Z,0
2019-04-11T04:03:15.710Z,0
2019-04-11T04:03:51.059Z,0
2019-04-11T04:04:23.702Z,0
2019-04-11T04:04:51.216Z,0
2019-04-11T04:05:18.992Z,0
2019-04-11T04:06:43.253Z,0
2019-04-11T04:07:16.484Z,0
2019-04-11T04:07:40.955Z,0
2019-04-11T04:08:39.784Z,0
2019-04-11T04:09:41.652Z,0
2019-04-11T04:10:36.618Z,0
2019-04-11T04:11:35.318Z,0
2019-04-11T04:12:37.685Z,0
2019-04-11T04:13:16.131Z,0
2019-04-11T04:13:38.431Z,0
2019-04-11T04:14:04.961Z,0
2019-04-11T04:14:39.130Z,0
2019-04-11T04:15:31.155Z,0
2019-04-11T04:16:46.912Z,0
2019-04-11T04:17:08.979Z,0
2019-04-11T04:17:35.902Z,0
2019-04-11T04:18:29.872Z,0
2019-04-11T04:19:32.979Z,0
2019-04-11T04:20:28.845Z,0
2019-04-11T04:21:26.788Z,0
2019-04-11T04:22:25.195Z,0
2019-04-11T04:23:21.978Z,0
2019-04-11T04:23:59.235Z,0
2019-04-11T04:24:24.990Z,0
2019-04-11T04:24:56.368Z,0
2019-04-11T04:26:20.444Z,0
2019-04-11T04:27:19.815Z,0
2019-04-11T04:28:16.564Z,0
2019-04-11T04:29:17.815Z,0
2019-04-11T04:30:21.861Z,0
2019-04-11T04:30:47.393Z,0
2019-04-11T04:31:18.923Z,-0.1
2019-04-11T04:32:16.195Z,-0.1
2019-04-11T04:33:14.770Z,-0.1
2019-04-11T04:33:45.462Z,-0.1
2019-04-11T04:34:12.029Z,-0.1
2019-04-11T04:34:46.364Z,-0.1
2019-04-11T04:35:23.556Z,-0.1
2019-04-11T04:35:45.397Z,-0.1
2019-04-11T04:36:18.428Z,-0.1
2019-04-11T04:36:44.331Z,-0.1
2019-04-11T04:37:21.325Z,-0.1
2019-04-11T04:37:49.719Z,-0.1
2019-04-11T04:38:16.216Z,-0.1
2019-04-11T04:39:06.405Z,-0.1
2019-04-11T04:39:40.116Z,-0.1
2019-04-11T04:41:00.052Z,-0.1
2019-04-11T04:42:13.171Z,-0.1
2019-04-11T04:42:57.872Z,-0.1
2019-04-11T04:43:19.478Z,-0.1
2019-04-11T04:44:02.199Z,-0.1
2019-04-11T04:44:33.643Z,-0.1
2019-04-11T04:45:07.359Z,-0.1
2019-04-11T04:46:34.316Z,-0.1
2019-04-11T04:47:54.777Z,-0.1
2019-04-11T04:48:29.018Z,-0.1
2019-04-11T04:48:51.705Z,-0.1
2019-04-11T04:49:19.175Z,-0.1
2019-04-11T04:49:54.911Z,-0.1
2019-04-11T04:50:28.523Z,-0.1
2019-04-11T04:51:08.806Z,-0.1
2019-04-11T04:51:30.999Z,-0.1
2019-04-11T04:51:56.954Z,-0.1
2019-04-11T04:52:55.728Z,-0.1
2019-04-11T04:53:52.319Z,-0.1
2019-04-11T04:54:49.921Z,-0.1
2019-04-11T04:55:54.167Z,-0.1
2019-04-11T04:56:47.852Z,-0.1
2019-04-11T04:57:46.484Z,-0.1
2019-04-11T04:58:50.642Z,-0.1
2019-04-11T04:59:16.891Z,-0.1
2019-04-11T05:00:45.858Z,-0.1
2019-04-11T05:01:17.033Z,-0.1
2019-04-11T05:01:48.457Z,-0.1
2019-04-11T05:02:44.647Z,-0.1
2019-04-11T05:04:40.641Z,0
2019-04-11T05:05:39.260Z,0
2019-04-11T05:06:38.615Z,0
2019-04-11T05:07:46.321Z,0
2019-04-11T05:08:35.564Z,0
2019-04-11T05:09:06.388Z,0
2019-04-11T05:09:38.579Z,0
2019-04-11T05:10:09.340Z,0
2019-04-11T05:11:31.729Z,0
2019-04-11T05:12:31.158Z,0
2019-04-11T05:13:34.262Z,0
2019-04-11T05:14:31.915Z,0
2019-04-11T05:15:28.980Z,0
2019-04-11T05:16:26.363Z,0
2019-04-11T05:17:29.234Z,0
2019-04-11T05:18:25.645Z,0
2019-04-11T05:18:55.300Z,0
2019-04-11T05:19:29.890Z,0
2019-04-11T05:19:56.920Z,0
2019-04-11T05:20:25.924Z,0
2019-04-11T05:20:57.461Z,0
2019-04-11T05:22:20.283Z,0
2019-04-11T05:23:19.701Z,0.1
2019-04-11T05:24:19.186Z,0.1
2019-04-11T05:25:18.438Z,0.1
2019-04-11T05:26:17.749Z,0.1
2019-04-11T05:27:15.256Z,0.1
2019-04-11T05:28:14.518Z,0.1
2019-04-11T05:28:45.993Z,0.1
2019-04-11T05:29:15.721Z,0.2
2019-04-11T05:29:46.389Z,0.2
2019-04-11T05:30:17.240Z,0.2
2019-04-11T05:30:46.955Z,0.2
2019-04-11T05:31:17.069Z,0.2
2019-04-11T05:31:47.533Z,0.2
2019-04-11T05:33:10.088Z,0.2
2019-04-11T05:34:08.349Z,0.3
2019-04-11T05:35:07.468Z,0.3
2019-04-11T05:36:06.447Z,0.3
2019-04-11T05:37:05.005Z,0.3
2019-04-11T05:38:05.370Z,0.3
2019-04-11T05:38:35.867Z,0.3
2019-04-11T05:39:05.077Z,0.3
2019-04-11T05:39:36.354Z,0.3
2019-04-11T05:40:07.682Z,0.3
2019-04-11T05:40:37.943Z,0.3
2019-04-11T05:41:15.286Z,0.4
2019-04-11T05:41:46.437Z,0.4
2019-04-11T05:43:00.140Z,0.5
2019-04-11T05:44:10.751Z,0.5
2019-04-11T05:44:29.015Z,0.5
2019-04-11T05:44:59.681Z,0.5
2019-04-11T05:45:58.577Z,0.5
2019-04-11T05:47:05.552Z,0.5
2019-04-11T05:47:58.542Z,0.5
2019-04-11T05:48:28.778Z,0.5
2019-04-11T05:49:02.584Z,0.5
2019-04-11T05:49:28.981Z,0.5
2019-04-11T05:49:57.089Z,0.6
2019-04-11T05:50:26.896Z,0.6
2019-04-11T05:50:58.222Z,0.6
2019-04-11T05:51:44.011Z,0.6
2019-04-11T05:52:01.935Z,0.6
2019-04-11T05:52:35.540Z,0.6
2019-04-11T05:53:55.806Z,0.7
2019-04-11T05:54:52.540Z,0.7
2019-04-11T05:55:47.951Z,0.7
2019-04-11T05:56:57.772Z,0.7
2019-04-11T05:57:45.096Z,0.7
2019-04-11T05:58:17.566Z,0.7
2019-04-11T05:58:49.343Z,0.7
2019-04-11T05:59:20.047Z,0.7
2019-04-11T05:59:55.049Z,0.7
2019-04-11T06:00:16.405Z,0.7
2019-04-11T06:00:47.158Z,0.7
2019-04-11T06:01:18.274Z,0.7
2019-04-11T06:01:47.248Z,0.8
2019-04-11T06:02:17.761Z,0.8
2019-04-11T06:03:47.638Z,0.8
2019-04-11T06:04:16.187Z,0.8
2019-04-11T06:04:38.380Z,0.8
2019-04-11T06:05:40.711Z,0.8
2019-04-11T06:06:41.871Z,0.8
2019-04-11T06:07:34.892Z,0.8
2019-04-11T06:08:32.795Z,0.8
2019-04-11T06:09:04.245Z,0.8
2019-04-11T06:09:41.781Z,0.8
2019-04-11T06:10:14.129Z,0.8
2019-04-11T06:10:34.369Z,0.8
2019-04-11T06:11:06.718Z,0.8
2019-04-11T06:12:29.560Z,0.9
2019-04-11T06:13:27.387Z,0.9
2019-04-11T06:14:27.597Z,0.9
2019-04-11T06:15:25.625Z,0.9
2019-04-11T06:16:50.634Z,1
2019-04-11T06:17:01.359Z,1
2019-04-11T06:17:32.272Z,1
2019-04-11T06:18:38.122Z,1
2019-04-11T06:18:52.921Z,1
2019-04-11T06:19:23.446Z,1
2019-04-11T06:19:54.086Z,1
2019-04-11T06:20:25.796Z,1
2019-04-11T06:20:55.893Z,1
2019-04-11T06:22:21.280Z,1.1
2019-04-11T06:23:17.248Z,1.1
2019-04-11T06:24:16.847Z,1.1
2019-04-11T06:25:19.571Z,1.1
2019-04-11T06:26:16.574Z,1.2
2019-04-11T06:27:17.115Z,1.2
2019-04-11T06:28:12.463Z,1.2
2019-04-11T06:29:27.734Z,1.2
2019-04-11T06:29:43.060Z,1.2
2019-04-11T06:30:12.887Z,1.3
2019-04-11T06:30:42.894Z,1.3
2019-04-11T06:32:09.690Z,1.3
2019-04-11T06:33:08.180Z,1.3
2019-04-11T06:34:07.547Z,1.4
2019-04-11T06:35:06.487Z,1.4
2019-04-11T06:36:04.784Z,1.4
2019-04-11T06:37:04.096Z,1.4
2019-04-11T06:38:03.199Z,1.5
2019-04-11T06:39:01.264Z,1.5
2019-04-11T06:40:02.743Z,1.5
2019-04-11T06:40:30.512Z,1.5
2019-04-11T06:41:02.439Z,1.5
2019-04-11T06:41:33.020Z,1.5
2019-04-11T06:42:07.474Z,1.6
2019-04-11T06:42:32.692Z,1.6
2019-04-11T06:43:04.146Z,1.6
2019-04-11T06:43:56.894Z,1.6
2019-04-11T06:44:56.651Z,1.7
2019-04-11T06:45:54.912Z,1.7
2019-04-11T06:47:02.212Z,1.7
2019-04-11T06:47:23.637Z,1.7
2019-04-11T06:47:54.087Z,1.7
2019-04-11T06:48:51.259Z,1.7
2019-04-11T06:49:51.474Z,1.8
2019-04-11T06:50:20.964Z,1.8
2019-04-11T06:50:51.818Z,1.8
2019-04-11T06:51:22.540Z,1.8
2019-04-11T06:51:55.299Z,1.8
2019-04-11T06:52:47.360Z,1.8
2019-04-11T06:53:46.445Z,1.9
2019-04-11T06:54:45.938Z,1.9
2019-04-11T06:55:15.437Z,1.9
2019-04-11T06:55:47.315Z,1.9
2019-04-11T06:56:17.265Z,1.9
2019-04-11T06:56:48.089Z,2
2019-04-11T06:57:18.556Z,2
2019-04-11T06:57:48.605Z,2
2019-04-11T06:58:41.081Z,2
2019-04-11T06:59:41.158Z,2.1
2019-04-11T07:00:39.616Z,2.1
2019-04-11T07:01:38.932Z,2.1
2019-04-11T07:02:37.418Z,2.2
2019-04-11T07:03:36.617Z,2.2
2019-04-11T07:04:36.193Z,2.2
2019-04-11T07:05:07.815Z,2.2
2019-04-11T07:05:35.856Z,2.3
2019-04-11T07:06:07.528Z,2.3
2019-04-11T07:06:38.221Z,2.3
2019-04-11T07:07:11.009Z,2.3
2019-04-11T07:07:38.441Z,2.3
2019-04-11T07:08:31.900Z,2.3
2019-04-11T07:09:31.432Z,2.3
2019-04-11T07:10:29.229Z,2.4
2019-04-11T07:11:28.314Z,2.4
2019-04-11T07:12:28.420Z,2.4
2019-04-11T07:13:25.896Z,2.5
2019-04-11T07:14:25.286Z,2.5
2019-04-11T07:14:55.727Z,2.5
2019-04-11T07:15:27.710Z,2.5
2019-04-11T07:15:57.432Z,2.5
2019-04-11T07:18:22.535Z,2.7
2019-04-11T07:20:19.280Z,2.7
2019-04-11T07:21:19.524Z,2.7
2019-04-11T07:22:17.923Z,2.8
2019-04-11T07:23:16.299Z,2.8
2019-04-11T07:24:16.523Z,2.9
2019-04-11T07:24:45.875Z,2.9
2019-04-11T07:25:16.573Z,2.9
2019-04-11T07:25:47.909Z,2.9
2019-04-11T07:26:17.304Z,3
2019-04-11T07:26:48.441Z,3
2019-04-11T07:28:11.116Z,3
2019-04-11T07:29:10.403Z,3
2019-04-11T07:30:09.868Z,3
2019-04-11T07:31:08.365Z,3.1
2019-04-11T07:32:07.452Z,3.1
2019-04-11T07:33:06.452Z,3.1
2019-04-11T07:34:06.685Z,3.2
2019-04-11T07:34:40.288Z,3.2
2019-04-11T07:35:05.883Z,3.2
2019-04-11T07:35:36.314Z,3.2
2019-04-11T07:36:08.621Z,3.2
2019-04-11T07:36:38.866Z,3.2
2019-04-11T07:37:07.916Z,3.3
2019-04-11T07:37:41.172Z,3.3
2019-04-11T07:39:00.380Z,3.3
2019-04-11T07:40:00.956Z,3.4
2019-04-11T07:41:00.924Z,3.4
2019-04-11T07:41:58.548Z,3.4
2019-04-11T07:43:13.416Z,3.4
2019-04-11T07:43:56.722Z,3.5
2019-04-11T07:44:32.102Z,3.5
2019-04-11T07:44:57.839Z,3.5
2019-04-11T07:45:27.062Z,3.5
2019-04-11T07:45:58.722Z,3.5
2019-04-11T07:46:30.700Z,3.5
2019-04-11T07:46:58.776Z,3.5
2019-04-11T07:47:29.983Z,3.5
2019-04-11T07:47:59.167Z,3.5
2019-04-11T07:48:29.737Z,3.5
2019-04-11T07:49:56.801Z,3.6
2019-04-11T07:50:21.625Z,3.6
2019-04-11T07:50:55.496Z,3.6
2019-04-11T07:51:49.100Z,3.6
2019-04-11T07:52:47.319Z,3.6
2019-04-11T07:53:46.506Z,3.7
2019-04-11T07:54:16.441Z,3.7
2019-04-11T07:54:48.284Z,3.8
2019-04-11T07:55:17.461Z,3.8
2019-04-11T07:55:48.035Z,3.8
2019-04-11T07:56:19.167Z,3.8
2019-04-11T07:56:49.017Z,3.9
2019-04-11T07:57:19.893Z,3.9
2019-04-11T07:57:49.537Z,3.9
2019-04-11T07:58:19.949Z,3.9
2019-04-11T07:59:40.222Z,4
2019-04-11T08:00:52.643Z,4
2019-04-11T08:01:10.279Z,4
2019-04-11T08:01:40.581Z,4
2019-04-11T08:02:38.158Z,4.1
2019-04-11T08:03:36.155Z,4.1
2019-04-11T08:04:34.886Z,4.1
2019-04-11T08:05:05.174Z,4.1
2019-04-11T08:05:36.927Z,4.1
2019-04-11T08:06:05.840Z,4.1
2019-04-11T08:06:37.545Z,4.1
2019-04-11T08:07:07.081Z,4.1
2019-04-11T08:07:38.415Z,4.2
2019-04-11T08:08:11.262Z,4.2
2019-04-11T08:09:31.453Z,4.2
2019-04-11T08:10:29.891Z,4.2
2019-04-11T08:11:28.251Z,4.3
2019-04-11T08:12:28.126Z,4.3
2019-04-11T08:13:26.792Z,4.3
2019-04-11T08:14:25.051Z,4.4
2019-04-11T08:14:55.581Z,4.4
2019-04-11T08:15:26.345Z,4.4
2019-04-11T08:15:56.522Z,4.4
2019-04-11T08:16:27.249Z,4.5
2019-04-11T08:16:57.879Z,4.5
2019-04-11T08:17:43.329Z,4.5
2019-04-11T08:17:58.175Z,4.5
2019-04-11T08:19:22.507Z,4.5
2019-04-11T08:20:19.934Z,4.6
2019-04-11T08:21:19.630Z,4.6
2019-04-11T08:22:17.539Z,4.6
2019-04-11T08:23:16.678Z,4.7
2019-04-11T08:24:16.778Z,4.7
2019-04-11T08:25:15.586Z,4.7
2019-04-11T08:25:45.759Z,4.7
2019-04-11T08:26:15.302Z,4.8
2019-04-11T08:26:46.841Z,4.8
2019-04-11T08:27:16.237Z,4.8
2019-04-11T08:28:04.197Z,4.8
2019-04-11T08:29:16.285Z,4.9
2019-04-11T08:30:11.200Z,5.1
2019-04-11T08:31:08.693Z,5.1
2019-04-11T08:32:07.796Z,5.1
2019-04-11T08:33:10.725Z,5.2
2019-04-11T08:34:07.384Z,5.3
2019-04-11T08:35:05.956Z,5.3
2019-04-11T08:36:03.785Z,5.5
2019-04-11T08:36:34.314Z,5.5
2019-04-11T08:37:05.834Z,5.5
2019-04-11T08:37:36.162Z,5.5
2019-04-11T08:38:05.882Z,5.6
2019-04-11T08:38:36.924Z,5.6
2019-04-11T08:39:07.407Z,5.6
2019-04-11T08:40:00.192Z,5.6
2019-04-11T08:41:59.484Z,5.5
2019-04-11T08:42:57.512Z,5.5
2019-04-11T08:43:56.237Z,5.5
2019-04-11T08:44:57.146Z,5.5
2019-04-11T08:45:54.633Z,5.5
2019-04-11T08:46:24.369Z,5.5
2019-04-11T08:46:54.637Z,5.5
2019-04-11T08:47:25.038Z,5.5
2019-04-11T08:48:00.219Z,5.5
2019-04-11T08:48:27.121Z,5.5
2019-04-11T08:48:57.867Z,5.5
2019-04-11T08:49:50.735Z,5.4
2019-04-11T08:50:50.924Z,5.5
2019-04-11T08:51:50.052Z,5.4
2019-04-11T08:52:22.741Z,5.4
2019-04-11T08:52:49.757Z,5.5
2019-04-11T08:53:46.521Z,5.4
2019-04-11T08:54:46.338Z,5.4
2019-04-11T08:56:00.243Z,5.4
2019-04-11T08:57:44.370Z,5.5
2019-04-11T08:58:42.017Z,5.5
2019-04-11T08:59:42.240Z,5.5
2019-04-11T09:00:40.721Z,5.4
2019-04-11T09:01:40.174Z,5.4
2019-04-11T09:02:09.302Z,5.4
2019-04-11T09:02:41.178Z,5.4
2019-04-11T09:03:09.962Z,5.4
2019-04-11T09:03:41.896Z,5.4
2019-04-11T09:04:36.993Z,5.4
2019-04-11T09:05:35.983Z,5.4
2019-04-11T09:06:34.627Z,5.5
2019-04-11T09:07:34.214Z,5.6
2019-04-11T09:08:32.817Z,5.6
2019-04-11T09:09:33.333Z,5.6
2019-04-11T09:10:31.668Z,5.7
2019-04-11T09:11:31.159Z,5.7
2019-04-11T09:12:01.004Z,5.7
2019-04-11T09:12:31.343Z,5.7
2019-04-11T09:13:02.700Z,5.7
2019-04-11T09:14:26.943Z,5.8
2019-04-11T09:15:27.156Z,5.8
2019-04-11T09:16:26.226Z,5.9
2019-04-11T09:17:24.289Z,5.9
2019-04-11T09:18:23.323Z,6
2019-04-11T09:19:23.492Z,6
2019-04-11T09:20:21.978Z,6
2019-04-11T09:21:20.803Z,6
2019-04-11T09:21:51.357Z,6
2019-04-11T09:22:22.860Z,5.9
2019-04-11T09:22:53.240Z,5.9
2019-04-11T09:23:22.750Z,5.9
2019-04-11T09:23:52.915Z,5.9
2019-04-11T09:25:16.578Z,5.8
2019-04-11T09:26:16.501Z,5.8
2019-04-11T09:27:14.843Z,5.8
2019-04-11T09:28:13.820Z,5.9
2019-04-11T09:29:14.018Z,5.9
2019-04-11T09:30:17.380Z,6
2019-04-11T09:31:15.640Z,6
2019-04-11T09:31:44.085Z,6
2019-04-11T09:32:12.333Z,6
2019-04-11T09:32:43.006Z,6
2019-04-11T09:33:13.446Z,6
2019-04-11T09:33:45.144Z,6
2019-04-11T09:35:08.754Z,6.1
2019-04-11T09:36:06.420Z,6.1
2019-04-11T09:37:05.766Z,6
2019-04-11T09:38:04.907Z,6.1
2019-04-11T09:39:04.799Z,6.2
2019-04-11T09:40:03.576Z,6.2
2019-04-11T09:41:01.920Z,6.2
2019-04-11T09:41:32.794Z,6.2
2019-04-11T09:42:03.558Z,6.2
2019-04-11T09:42:34.761Z,6.2
2019-04-11T09:43:04.377Z,6.2
2019-04-11T09:43:34.471Z,6.2
2019-04-11T09:44:04.802Z,6.3
2019-04-11T09:44:35.378Z,6.3
2019-04-11T09:45:58.142Z,6.4
2019-04-11T09:46:57.513Z,6.5
2019-04-11T09:48:17.877Z,6.5
2019-04-11T09:48:26.717Z,6.5
2019-04-11T09:48:57.700Z,6.6
2019-04-11T09:49:54.216Z,6.7
2019-04-11T09:50:53.297Z,6.7
2019-04-11T09:51:23.852Z,6.7
2019-04-11T09:51:53.442Z,6.7
2019-04-11T09:52:24.763Z,6.7
2019-04-11T09:52:56.260Z,6.7
2019-04-11T09:53:24.667Z,6.7
2019-04-11T09:53:55.412Z,6.6
2019-04-11T09:54:26.679Z,6.6
2019-04-11T09:54:57.248Z,6.4
2019-04-11T09:55:26.529Z,6.4
2019-04-11T09:56:47.683Z,6.3
2019-04-11T09:57:46.664Z,6.4
2019-04-11T09:58:45.276Z,6.3
2019-04-11T09:59:45.283Z,6.2
2019-04-11T10:00:43.676Z,6.2
2019-04-11T10:01:13.651Z,6.2
2019-04-11T10:01:44.876Z,6.1
2019-04-11T10:02:14.980Z,6.1
2019-04-11T10:02:46.390Z,6.1
2019-04-11T10:03:15.893Z,6.1
2019-04-11T10:03:45.832Z,6
2019-04-11T10:04:17.258Z,6
2019-04-11T10:04:48.309Z,6
2019-04-11T10:05:18.645Z,6
2019-04-11T10:06:39.314Z,5.9
2019-04-11T10:07:38.201Z,5.8
2019-04-11T10:08:37.539Z,5.8
2019-04-11T10:09:36.205Z,5.8
2019-04-11T10:10:35.724Z,5.7
2019-04-11T10:11:34.727Z,5.8
2019-04-11T10:12:05.032Z,5.8
2019-04-11T10:12:34.482Z,5.8
2019-04-11T10:13:05.196Z,5.8
2019-04-11T10:13:37.383Z,5.8
2019-04-11T10:14:07.124Z,5.8
2019-04-11T10:14:36.232Z,5.8
2019-04-11T10:15:07.671Z,5.8
2019-04-11T10:16:28.934Z,5.9
2019-04-11T10:17:27.985Z,5.9
2019-04-11T10:18:40.676Z,6
2019-04-11T10:19:26.032Z,6
2019-04-11T10:20:25.049Z,6.1
2019-04-11T10:21:26.244Z,6.1
2019-04-11T10:22:23.268Z,6.2
2019-04-11T10:22:54.853Z,6.2
2019-04-11T10:23:25.526Z,6.2
2019-04-11T10:23:54.489Z,6.2
2019-04-11T10:24:26.545Z,6.2
2019-04-11T10:24:55.348Z,6.2
2019-04-11T10:26:20.754Z,6.2
2019-04-11T10:27:18.762Z,6.2
2019-04-11T10:28:17.904Z,6.2
2019-04-11T10:29:17.658Z,6.3
2019-04-11T10:30:15.771Z,6.2
2019-04-11T10:31:15.246Z,6.2
2019-04-11T10:32:15.384Z,6.2
2019-04-11T10:33:13.488Z,6.1
2019-04-11T10:33:43.362Z,6.1
2019-04-11T10:34:13.861Z,6.1
2019-04-11T10:34:44.390Z,6.1
2019-04-11T10:36:10.994Z,6.2
2019-04-11T10:37:10.239Z,6.3
2019-04-11T10:38:08.935Z,6.3
2019-04-11T10:39:07.704Z,6.3
2019-04-11T10:40:06.684Z,6.3
2019-04-11T10:41:06.840Z,6.4
2019-04-11T10:42:04.897Z,6.5
2019-04-11T10:43:04.829Z,6.5
2019-04-11T10:44:03.333Z,6.5
2019-04-11T10:44:34.510Z,6.5
2019-04-11T10:45:05.205Z,6.5
2019-04-11T10:45:34.940Z,6.5
2019-04-11T10:46:05.430Z,6.4
2019-04-11T10:47:00.516Z,6.4
2019-04-11T10:47:59.533Z,6.4
2019-04-11T10:48:58.349Z,6.4
2019-04-11T10:49:58.702Z,6.4
2019-04-11T10:50:56.669Z,6.3
2019-04-11T10:51:56.585Z,6.4
2019-04-11T10:52:55.634Z,6.4
2019-04-11T10:53:53.923Z,6.4
2019-04-11T10:54:53.796Z,6.4
2019-04-11T10:55:23.538Z,6.4
2019-04-11T10:55:54.254Z,6.4
2019-04-11T10:56:52.128Z,6.3
2019-04-11T10:57:50.081Z,6.3
2019-04-11T10:58:49.694Z,6.3
2019-04-11T10:59:49.497Z,6.2
2019-04-11T11:00:19.451Z,6.2
2019-04-11T11:00:49.687Z,6.2
2019-04-11T11:01:46.988Z,6.3
2019-04-11T11:02:45.819Z,6.4
2019-04-11T11:03:45.718Z,6.5
2019-04-11T11:04:45.316Z,6.5
2019-04-11T11:05:19.712Z,6.5